Time,TemperatureF,DewpointF,PressureIn,WindDirection,WindDirectionDegrees,WindSpeedMPH,WindSpeedGustMPH,Humidity,HourlyPrecipIn,Conditions,Clouds,dailyrainin,SolarRadiationWatts/m^2,SoftwareType,DateUTC
2013-01-09 00:01:00,59.3,28.7,30.09,West,273,3.0,7.0,31,0.00,,CLR,0.00,0.00,VWS V14.01,2013-01-09 08:01:00,
2013-01-09 00:06:00,59.0,28.4,30.08,WNW,294,6.0,9.0,31,0.00,,CLR,0.00,0.00,VWS V14.01,2013-01-09 08:06:00,
2013-01-09 00:11:00,58.7,29.7,30.08,West,278,4.0,8.0,33,0.00,,CLR,0.00,0.00,VWS V14.01,2013-01-09 08:11:00,
2013-01-09 00:16:00,58.3,28.6,30.08,NW,307,7.0,7.0,32,0.00,,CLR,0.00,0.00,VWS V14.01,2013-01-09 08:16:00,
2013-01-09 00:21:00,58.0,28.3,30.08,West,281,3.0,6.0,32,0.00,,CLR,0.00,0.00,VWS V14.01,2013-01-09 08:21:00,
2013-01-09 00:26:00,57.6,28.0,30.08,West,272,1.0,3.0,32,0.00,,CLR,0.00,0.00,VWS V14.01,2013-01-09 08:26:00,
2013-01-09 00:31:00,57.5,28.6,30.08,West,271,2.0,2.0,33,0.00,,CLR,0.00,0.00,VWS V14.01,2013-01-09 08:31:00,
2013-01-09 00:36:00,57.2,28.4,30.08,West,271,1.0,2.0,33,0.00,,CLR,0.00,0.00,VWS V14.01,2013-01-09 08:36:00,
2013-01-09 00:41:00,57.0,28.2,30.08,West,280,4.0,4.0,33,0.00,,CLR,0.00,0.00,VWS V14.01,2013-01-09 08:41:00,
2013-01-09 00:46:00,56.9,28.1,30.08,WNW,296,2.0,3.0,33,0.00,,CLR,0.00,0.00,VWS V14.01,2013-01-09 08:46:00,
2013-01-09 00:51:00,56.9,28.8,30.08,NW,304,2.0,5.0,34,0.00,,CLR,0.00,0.00,VWS V14.01,2013-01-09 08:51:00,
2013-01-09 00:56:00,56.9,28.8,30.08,WNW,284,2.0,3.0,34,0.00,,CLR,0.00,0.00,VWS V14.01,2013-01-09 08:56:00,
2013-01-09 01:01:00,56.9,28.8,30.08,WNW,284,0.0,0.0,34,0.00,,CLR,0.00,0.00,VWS V14.01,2013-01-09 09:01:00,
2013-01-09 01:06:00,56.9,28.8,30.08,WNW,283,0.0,2.0,34,0.00,,CLR,0.00,0.00,VWS V14.01,2013-01-09 09:06:00,
2013-01-09 01:11:00,56.7,29.4,30.08,West,281,1.0,2.0,35,0.00,,CLR,0.00,0.00,VWS V14.01,2013-01-09 09:11:00,
2013-01-09 01:16:00,56.7,29.4,30.08,West,281,0.0,2.0,35,0.00,,CLR,0.00,0.00,VWS V14.01,2013-01-09 09:16:00,
2013-01-09 01:21:00,56.6,29.3,30.08,West,281,0.0,0.0,35,0.00,,CLR,0.00,0.00,VWS V14.01,2013-01-09 09:21:00,
2013-01-09 01:26:00,56.6,29.3,30.08,West,281,0.0,0.0,35,0.00,,CLR,0.00,0.00,VWS V14.01,2013-01-09 09:26:00,
2013-01-09 01:31:00,56.5,29.2,30.08,West,281,0.0,2.0,35,0.00,,CLR,0.00,0.00,VWS V14.01,2013-01-09 09:31:00,
2013-01-09 01:36:00,56.3,29.7,30.08,West,281,2.0,2.0,36,0.00,,CLR,0.00,0.00,VWS V14.01,2013-01-09 09:36:00,
2013-01-09 01:41:00,56.2,29.6,30.08,WNW,290,2.0,3.0,36,0.00,,CLR,0.00,0.00,VWS V14.01,2013-01-09 09:41:00,
2013-01-09 01:46:00,56.2,28.9,30.08,NW,314,1.0,3.0,35,0.00,,CLR,0.00,0.00,VWS V14.01,2013-01-09 09:46:00,
2013-01-09 01:51:00,56.0,28.8,30.08,NNW,334,2.0,3.0,35,0.00,,CLR,0.00,0.00,VWS V14.01,2013-01-09 09:51:00,
2013-01-09 01:56:00,55.9,29.4,30.08,NNW,331,2.0,3.0,36,0.00,,CLR,0.00,0.00,VWS V14.01,2013-01-09 09:56:00,
2013-01-09 02:01:00,55.7,29.2,30.08,NW,308,0.0,4.0,36,0.00,,CLR,0.00,0.00,VWS V14.01,2013-01-09 10:01:00,
2013-01-09 02:06:00,55.4,29.6,30.08,NW,317,2.0,3.0,37,0.00,,CLR,0.00,0.00,VWS V14.01,2013-01-09 10:06:00,
2013-01-09 02:11:00,55.3,29.5,30.08,NW,317,2.0,4.0,37,0.00,,CLR,0.00,0.00,VWS V14.01,2013-01-09 10:11:00,
2013-01-09 02:16:00,55.1,29.3,30.08,NW,313,2.0,3.0,37,0.00,,CLR,0.00,0.00,VWS V14.01,2013-01-09 10:16:00,
2013-01-09 02:22:00,55.0,29.2,30.08,NW,314,1.0,3.0,37,0.00,,CLR,0.00,0.00,VWS V14.01,2013-01-09 10:22:00,
2013-01-09 02:27:00,54.7,29.0,30.08,NW,314,1.0,2.0,37,0.00,,CLR,0.00,0.00,VWS V14.01,2013-01-09 10:27:00,
2013-01-09 02:32:00,54.5,26.7,30.08,NW,318,1.0,3.0,34,0.00,,CLR,0.00,0.00,VWS V14.01,2013-01-09 10:32:00,
2013-01-09 02:37:00,54.4,29.3,30.08,NNW,332,2.0,3.0,38,0.00,,CLR,0.00,0.00,VWS V14.01,2013-01-09 10:37:00,
2013-01-09 02:42:00,54.1,29.1,30.08,NNW,333,1.0,2.0,38,0.00,,CLR,0.00,0.00,VWS V14.01,2013-01-09 10:42:00,
2013-01-09 02:47:00,54.1,29.1,30.08,NNW,333,0.0,0.0,38,0.00,,CLR,0.00,0.00,VWS V14.01,2013-01-09 10:47:00,
2013-01-09 02:52:00,53.9,28.9,30.07,NNW,330,0.0,2.0,38,0.00,,CLR,0.00,0.00,VWS V14.01,2013-01-09 10:52:00,
2013-01-09 02:57:00,53.8,29.4,30.07,NNW,330,0.0,0.0,39,0.00,,CLR,0.00,0.00,VWS V14.01,2013-01-09 10:57:00,
2013-01-09 03:02:00,53.6,29.3,30.08,NNW,330,0.0,0.0,39,0.00,,CLR,0.00,0.00,VWS V14.01,2013-01-09 11:02:00,
2013-01-09 03:07:00,53.5,29.2,30.08,NNW,330,0.0,0.0,39,0.00,,CLR,0.00,0.00,VWS V14.01,2013-01-09 11:07:00,
2013-01-09 03:12:00,53.3,29.6,30.08,NNW,330,0.0,1.0,40,0.00,,CLR,0.00,0.00,VWS V14.01,2013-01-09 11:12:00,
2013-01-09 03:17:00,53.2,29.5,30.08,NNW,330,0.0,0.0,40,0.00,,CLR,0.00,0.00,VWS V14.01,2013-01-09 11:17:00,
2013-01-09 03:22:00,53.1,30.0,30.08,NNW,330,0.0,0.0,41,0.00,,CLR,0.00,0.00,VWS V14.01,2013-01-09 11:22:00,
2013-01-09 03:27:00,52.8,29.8,30.08,NNW,330,0.0,0.0,41,0.00,,CLR,0.00,0.00,VWS V14.01,2013-01-09 11:27:00,
2013-01-09 03:32:00,52.6,29.6,30.08,NNW,330,0.0,0.0,41,0.00,,CLR,0.00,0.00,VWS V14.01,2013-01-09 11:32:00,
2013-01-09 03:37:00,52.5,29.5,30.08,NNW,330,0.0,0.0,41,0.00,,CLR,0.00,0.00,VWS V14.01,2013-01-09 11:37:00,
2013-01-09 03:42:00,52.3,29.3,30.08,NNW,330,0.0,0.0,41,0.00,,CLR,0.00,0.00,VWS V14.01,2013-01-09 11:42:00,
2013-01-09 03:47:00,52.2,29.8,30.08,NNW,330,0.0,0.0,42,0.00,,CLR,0.00,0.00,VWS V14.01,2013-01-09 11:47:00,
2013-01-09 03:52:00,52.2,29.8,30.08,NW,323,3.0,3.0,42,0.00,,CLR,0.00,0.00,VWS V14.01,2013-01-09 11:52:00,
2013-01-09 03:57:00,52.0,29.0,30.08,NNW,332,2.0,3.0,41,0.00,,CLR,0.00,0.00,VWS V14.01,2013-01-09 11:57:00,
2013-01-09 04:02:00,51.9,29.0,30.08,NNW,332,1.0,2.0,41,0.00,,CLR,0.00,0.00,VWS V14.01,2013-01-09 12:02:00,
2013-01-09 04:07:00,51.7,28.8,30.08,NNW,332,2.0,2.0,41,0.00,,CLR,0.00,0.00,VWS V14.01,2013-01-09 12:07:00,
2013-01-09 04:12:00,51.7,28.8,30.08,NNW,329,2.0,2.0,41,0.00,,CLR,0.00,0.00,VWS V14.01,2013-01-09 12:12:00,
2013-01-09 04:17:00,51.4,28.5,30.07,NNW,327,1.0,2.0,41,0.00,,CLR,0.00,0.00,VWS V14.01,2013-01-09 12:17:00,
2013-01-09 04:22:00,51.3,29.0,30.07,NW,315,2.0,3.0,42,0.00,,CLR,0.00,0.00,VWS V14.01,2013-01-09 12:22:00,
2013-01-09 04:27:00,51.1,28.8,30.07,NW,316,2.0,2.0,42,0.00,,CLR,0.00,0.00,VWS V14.01,2013-01-09 12:27:00,
2013-01-09 04:33:00,51.0,28.7,30.07,NW,316,1.0,3.0,42,0.00,,CLR,0.00,0.00,VWS V14.01,2013-01-09 12:33:00,
2013-01-09 04:38:00,51.0,28.7,30.07,NW,315,1.0,2.0,42,0.00,,CLR,0.00,0.00,VWS V14.01,2013-01-09 12:38:00,
2013-01-09 04:43:00,50.8,29.1,30.07,NW,313,2.0,2.0,43,0.00,,CLR,0.00,0.00,VWS V14.01,2013-01-09 12:43:00,
2013-01-09 04:48:00,50.7,29.0,30.08,NW,312,1.0,2.0,43,0.00,,CLR,0.00,0.00,VWS V14.01,2013-01-09 12:48:00,
2013-01-09 04:53:00,50.5,28.9,30.08,NW,315,2.0,2.0,43,0.00,,CLR,0.00,0.00,VWS V14.01,2013-01-09 12:53:00,
2013-01-09 04:58:00,50.5,29.4,30.08,NW,319,2.0,2.0,44,0.00,,CLR,0.00,0.00,VWS V14.01,2013-01-09 12:58:00,
2013-01-09 05:03:00,50.4,29.9,30.08,NW,318,1.0,2.0,45,0.00,,CLR,0.00,0.00,VWS V14.01,2013-01-09 13:03:00,
2013-01-09 05:08:00,50.4,29.3,30.08,NW,316,1.0,2.0,44,0.00,,CLR,0.00,0.00,VWS V14.01,2013-01-09 13:08:00,
2013-01-09 05:13:00,50.4,29.3,30.08,NW,316,0.0,0.0,44,0.00,,CLR,0.00,0.00,VWS V14.01,2013-01-09 13:13:00,
2013-01-09 05:18:00,50.4,29.9,30.08,NW,316,0.0,0.0,45,0.00,,CLR,0.00,0.00,VWS V14.01,2013-01-09 13:18:00,
2013-01-09 05:23:00,50.4,29.9,30.08,NW,316,0.0,0.0,45,0.00,,CLR,0.00,0.00,VWS V14.01,2013-01-09 13:23:00,
2013-01-09 05:28:00,50.4,29.9,30.08,NW,316,2.0,2.0,45,0.00,,CLR,0.00,0.00,VWS V14.01,2013-01-09 13:28:00,
2013-01-09 05:33:00,50.4,29.9,30.09,NW,321,2.0,2.0,45,0.00,,CLR,0.00,0.00,VWS V14.01,2013-01-09 13:33:00,
2013-01-09 05:38:00,50.2,29.7,30.09,NW,320,0.0,2.0,45,0.00,,CLR,0.00,0.00,VWS V14.01,2013-01-09 13:38:00,
2013-01-09 05:43:00,50.1,29.6,30.09,NNW,327,2.0,2.0,45,0.00,,CLR,0.00,0.00,VWS V14.01,2013-01-09 13:43:00,
2013-01-09 05:48:00,49.9,30.0,30.09,NNW,334,2.0,2.0,46,0.00,,CLR,0.00,0.00,VWS V14.01,2013-01-09 13:48:00,
2013-01-09 05:53:00,49.8,29.9,30.09,NNW,327,2.0,2.0,46,0.00,,CLR,0.00,0.00,VWS V14.01,2013-01-09 13:53:00,
2013-01-09 05:58:00,49.6,29.7,30.09,NW,321,2.0,2.0,46,0.00,,CLR,0.00,0.00,VWS V14.01,2013-01-09 13:58:00,
2013-01-09 06:03:00,49.6,29.1,30.09,NW,311,2.0,2.0,45,0.00,,CLR,0.00,0.00,VWS V14.01,2013-01-09 14:03:00,
2013-01-09 06:08:00,49.5,29.6,30.09,NW,310,1.0,2.0,46,0.00,,CLR,0.00,0.00,VWS V14.01,2013-01-09 14:08:00,
2013-01-09 06:13:00,49.5,30.1,30.09,NW,309,0.0,1.0,47,0.00,,CLR,0.00,0.00,VWS V14.01,2013-01-09 14:13:00,
2013-01-09 06:18:00,49.5,30.1,30.10,NW,309,0.0,0.0,47,0.00,,CLR,0.00,0.00,VWS V14.01,2013-01-09 14:18:00,
2013-01-09 06:23:00,49.5,30.1,30.10,NW,306,1.0,2.0,47,0.00,,CLR,0.00,0.00,VWS V14.01,2013-01-09 14:23:00,
2013-01-09 06:28:00,49.4,30.0,30.10,NW,306,1.0,2.0,47,0.00,,CLR,0.00,0.00,VWS V14.01,2013-01-09 14:28:00,
2013-01-09 06:33:00,49.2,29.9,30.10,NW,305,1.0,2.0,47,0.00,,CLR,0.00,0.00,VWS V14.01,2013-01-09 14:33:00,
2013-01-09 06:38:00,49.1,29.8,30.10,NW,304,1.0,2.0,47,0.00,,CLR,0.00,0.00,VWS V14.01,2013-01-09 14:38:00,
2013-01-09 06:43:00,48.9,29.6,30.10,NW,304,1.0,2.0,47,0.00,,CLR,0.00,5.00,VWS V14.01,2013-01-09 14:43:00,
2013-01-09 06:49:00,48.8,29.5,30.10,WNW,301,1.0,2.0,47,0.00,,CLR,0.00,5.00,VWS V14.01,2013-01-09 14:49:00,
2013-01-09 06:54:00,48.6,29.8,30.10,WNW,297,1.0,2.0,48,0.00,,CLR,0.00,5.00,VWS V14.01,2013-01-09 14:54:00,
2013-01-09 06:59:00,48.5,29.7,30.10,WNW,289,2.0,2.0,48,0.00,,CLR,0.00,9.00,VWS V14.01,2013-01-09 14:59:00,
2013-01-09 07:04:00,48.3,30.0,30.11,WNW,288,1.0,2.0,49,0.00,,CLR,0.00,14.00,VWS V14.01,2013-01-09 15:04:00,
2013-01-09 07:09:00,48.2,30.5,30.11,WNW,289,2.0,2.0,50,0.00,,CLR,0.00,21.00,VWS V14.01,2013-01-09 15:09:00,
2013-01-09 07:14:00,48.0,30.3,30.11,WNW,290,2.0,2.0,50,0.00,,CLR,0.00,26.00,VWS V14.01,2013-01-09 15:14:00,
2013-01-09 07:19:00,48.0,30.3,30.12,WNW,290,2.0,2.0,50,0.00,,CLR,0.00,32.00,VWS V14.01,2013-01-09 15:19:00,
2013-01-09 07:24:00,48.0,30.8,30.12,WNW,290,2.0,2.0,51,0.00,,CLR,0.00,35.00,VWS V14.01,2013-01-09 15:24:00,
2013-01-09 07:29:00,48.0,30.8,30.12,WNW,290,1.0,2.0,51,0.00,,CLR,0.00,39.00,VWS V14.01,2013-01-09 15:29:00,
2013-01-09 07:34:00,48.2,30.9,30.13,WNW,290,2.0,2.0,51,0.00,,CLR,0.00,44.00,VWS V14.01,2013-01-09 15:34:00,
2013-01-09 07:39:00,48.2,30.5,30.13,WNW,294,2.0,2.0,50,0.00,,CLR,0.00,56.00,VWS V14.01,2013-01-09 15:39:00,
2013-01-09 07:44:00,48.3,30.0,30.13,WNW,295,1.0,2.0,49,0.00,,CLR,0.00,74.00,VWS V14.01,2013-01-09 15:44:00,
2013-01-09 07:49:00,48.5,30.2,30.13,WNW,295,1.0,2.0,49,0.00,,CLR,0.00,97.00,VWS V14.01,2013-01-09 15:49:00,
2013-01-09 07:54:00,48.6,30.8,30.13,WNW,297,2.0,2.0,50,0.00,,CLR,0.00,120.00,VWS V14.01,2013-01-09 15:54:00,
2013-01-09 07:59:00,48.9,31.1,30.13,WNW,298,2.0,2.0,50,0.00,,CLR,0.00,135.00,VWS V14.01,2013-01-09 15:59:00,
2013-01-09 08:04:00,49.2,30.9,30.13,WNW,300,1.0,2.0,49,0.00,,CLR,0.00,111.00,VWS V14.01,2013-01-09 16:04:00,
2013-01-09 08:09:00,49.6,30.7,30.13,WNW,299,1.0,2.0,48,0.00,,CLR,0.00,123.00,VWS V14.01,2013-01-09 16:09:00,
2013-01-09 08:14:00,50.1,31.2,30.13,WNW,298,0.0,0.0,48,0.00,,CLR,0.00,151.00,VWS V14.01,2013-01-09 16:14:00,
2013-01-09 08:19:00,50.7,31.7,30.14,WNW,298,0.0,1.0,48,0.00,,CLR,0.00,137.00,VWS V14.01,2013-01-09 16:19:00,
2013-01-09 08:24:00,51.3,32.8,30.14,WNW,297,0.0,0.0,49,0.00,,CLR,0.00,204.00,VWS V14.01,2013-01-09 16:24:00,
2013-01-09 08:29:00,51.7,32.7,30.14,WNW,297,0.0,0.0,48,0.00,,CLR,0.00,251.00,VWS V14.01,2013-01-09 16:29:00,
2013-01-09 08:34:00,52.5,33.4,30.15,WNW,298,0.0,0.0,48,0.00,,CLR,0.00,290.00,VWS V14.01,2013-01-09 16:34:00,
2013-01-09 08:39:00,53.2,34.0,30.15,WNW,297,0.0,0.0,48,0.00,,CLR,0.00,258.00,VWS V14.01,2013-01-09 16:39:00,
2013-01-09 08:44:00,53.8,33.5,30.15,WNW,297,0.0,1.0,46,0.00,,CLR,0.00,269.00,VWS V14.01,2013-01-09 16:44:00,
2013-01-09 08:49:00,54.5,33.6,30.15,WNW,297,0.0,2.0,45,0.00,,CLR,0.00,279.00,VWS V14.01,2013-01-09 16:49:00,
2013-01-09 08:54:00,55.3,33.8,30.15,WNW,297,0.0,0.0,44,0.00,,CLR,0.00,292.00,VWS V14.01,2013-01-09 16:54:00,
2013-01-09 08:59:00,56.2,34.0,30.15,WNW,297,0.0,0.0,43,0.00,,CLR,0.00,339.00,VWS V14.01,2013-01-09 16:59:00,
2013-01-09 09:04:00,58.7,33.8,30.15,WNW,298,0.0,0.0,39,0.00,,CLR,0.00,322.00,VWS V14.01,2013-01-09 17:04:00,
2013-01-09 09:09:00,59.8,34.2,30.15,WNW,297,0.0,2.0,38,0.00,,CLR,0.00,299.00,VWS V14.01,2013-01-09 17:09:00,
2013-01-09 09:14:00,60.4,34.7,30.15,WNW,297,0.0,2.0,38,0.00,,CLR,0.00,255.00,VWS V14.01,2013-01-09 17:14:00,
2013-01-09 09:19:00,61.0,35.2,30.15,WNW,297,0.0,0.0,38,0.00,,CLR,0.00,309.00,VWS V14.01,2013-01-09 17:19:00,
2013-01-09 09:24:00,61.6,35.1,30.15,WNW,297,0.0,0.0,37,0.00,,CLR,0.00,260.00,VWS V14.01,2013-01-09 17:24:00,
2013-01-09 09:29:00,62.0,34.8,30.15,WNW,297,0.0,1.0,36,0.00,,CLR,0.00,322.00,VWS V14.01,2013-01-09 17:29:00,
2013-01-09 09:35:00,62.6,35.3,30.14,WNW,297,0.0,0.0,36,0.00,,CLR,0.00,371.00,VWS V14.01,2013-01-09 17:35:00,
2013-01-09 09:40:00,63.2,35.1,30.14,WNW,297,0.0,0.0,35,0.00,,CLR,0.00,431.00,VWS V14.01,2013-01-09 17:40:00,
2013-01-09 09:45:00,63.9,37.8,30.14,WNW,297,0.0,0.0,38,0.00,,CLR,0.00,436.00,VWS V14.01,2013-01-09 17:45:00,
2013-01-09 09:50:00,64.5,38.3,30.14,WNW,297,0.0,0.0,38,0.00,,CLR,0.00,452.00,VWS V14.01,2013-01-09 17:50:00,
2013-01-09 09:55:00,65.0,38.8,30.14,WNW,297,0.0,0.0,38,0.00,,CLR,0.00,420.00,VWS V14.01,2013-01-09 17:55:00,
2013-01-09 10:00:00,65.3,37.0,30.14,WNW,297,0.0,0.0,35,0.00,,CLR,0.00,401.00,VWS V14.01,2013-01-09 18:00:00,
2013-01-09 10:05:00,65.8,35.9,30.13,WNW,297,0.0,0.0,33,0.00,,CLR,0.00,445.00,VWS V14.01,2013-01-09 18:05:00,
2013-01-09 10:10:00,66.0,33.7,30.13,WNW,297,0.0,0.0,30,0.00,,CLR,0.00,446.00,VWS V14.01,2013-01-09 18:10:00,
2013-01-09 10:15:00,66.1,33.8,30.13,WNW,297,0.0,0.0,30,0.00,,CLR,0.00,429.00,VWS V14.01,2013-01-09 18:15:00,
2013-01-09 10:20:00,67.1,34.7,30.13,WNW,297,0.0,0.0,30,0.00,,CLR,0.00,469.00,VWS V14.01,2013-01-09 18:20:00,
2013-01-09 10:25:00,67.1,33.8,30.13,West,262,0.0,0.0,29,0.00,,CLR,0.00,439.00,VWS V14.01,2013-01-09 18:25:00,
2013-01-09 10:30:00,67.4,33.2,30.13,West,262,0.0,1.0,28,0.00,,CLR,0.00,489.00,VWS V14.01,2013-01-09 18:30:00,
2013-01-09 10:35:00,67.8,31.7,30.12,West,262,0.0,0.0,26,0.00,,CLR,0.00,561.00,VWS V14.01,2013-01-09 18:35:00,
2013-01-09 10:40:00,68.4,32.2,30.12,West,262,0.0,3.0,26,0.00,,CLR,0.00,519.00,VWS V14.01,2013-01-09 18:40:00,
2013-01-09 10:41:00,68.3,31.1,30.12,West,262,3.0,3.0,25,0.00,,CLR,0.00,519.00,VWS V14.01,2013-01-09 18:41:00,
2013-01-09 10:42:00,68.1,32.0,30.12,WSW,237,0.0,4.0,26,0.00,,CLR,0.00,443.00,VWS V14.01,2013-01-09 18:42:00,
2013-01-09 10:43:00,68.1,32.0,30.12,WSW,237,1.0,4.0,26,0.00,,CLR,0.00,443.00,VWS V14.01,2013-01-09 18:43:00,
2013-01-09 10:44:00,68.1,32.9,30.12,WSW,237,0.0,1.0,27,0.00,,CLR,0.00,446.00,VWS V14.01,2013-01-09 18:44:00,
2013-01-09 10:45:00,68.1,32.0,30.12,WSW,237,2.0,2.0,26,0.00,,CLR,0.00,436.00,VWS V14.01,2013-01-09 18:45:00,
2013-01-09 10:47:00,68.4,33.1,30.11,SSW,207,3.0,6.0,27,0.00,,CLR,0.00,415.00,VWS V14.01,2013-01-09 18:47:00,
2013-01-09 10:48:00,68.4,32.2,30.11,SSW,207,2.0,6.0,26,0.00,,CLR,0.00,415.00,VWS V14.01,2013-01-09 18:48:00,
2013-01-09 10:49:00,68.4,32.2,30.11,SSW,207,3.0,5.0,26,0.00,,CLR,0.00,461.00,VWS V14.01,2013-01-09 18:49:00,
2013-01-09 10:51:00,68.4,33.1,30.11,SSW,207,2.0,5.0,27,0.00,,CLR,0.00,487.00,VWS V14.01,2013-01-09 18:51:00,
2013-01-09 10:56:00,68.4,32.2,30.11,SSW,207,1.0,6.0,26,0.00,,CLR,0.00,587.00,VWS V14.01,2013-01-09 18:56:00,
2013-01-09 11:01:00,68.8,32.5,30.11,SSW,207,4.0,5.0,26,0.00,,CLR,0.00,503.00,VWS V14.01,2013-01-09 19:01:00,
2013-01-09 11:06:00,68.8,32.5,30.10,SSW,206,3.0,6.0,26,0.00,,CLR,0.00,520.00,VWS V14.01,2013-01-09 19:06:00,
2013-01-09 11:11:00,68.9,32.6,30.10,SSW,205,5.0,7.0,26,0.00,,CLR,0.00,469.00,VWS V14.01,2013-01-09 19:11:00,
2013-01-09 11:16:00,68.4,33.1,30.10,SSW,205,3.0,6.0,27,0.00,,CLR,0.00,545.00,VWS V14.01,2013-01-09 19:16:00,
2013-01-09 11:22:00,69.4,34.9,30.09,South,186,0.0,6.0,28,0.00,,CLR,0.00,563.00,VWS V14.01,2013-01-09 19:22:00,
2013-01-09 11:27:00,69.4,34.9,30.09,South,186,5.0,7.0,28,0.00,,CLR,0.00,552.00,VWS V14.01,2013-01-09 19:27:00,
2013-01-09 11:32:00,69.4,33.1,30.08,South,185,3.0,7.0,26,0.00,,CLR,0.00,561.00,VWS V14.01,2013-01-09 19:32:00,
2013-01-09 11:37:00,69.8,33.4,30.08,South,185,3.0,6.0,26,0.00,,CLR,0.00,533.00,VWS V14.01,2013-01-09 19:37:00,
2013-01-09 11:42:00,69.9,30.5,30.08,South,183,2.0,7.0,23,0.00,,CLR,0.00,617.00,VWS V14.01,2013-01-09 19:42:00,
2013-01-09 11:47:00,70.4,30.9,30.07,South,183,5.0,5.0,23,0.00,,CLR,0.00,606.00,VWS V14.01,2013-01-09 19:47:00,
2013-01-09 11:52:00,70.1,30.6,30.07,South,180,2.0,7.0,23,0.00,,CLR,0.00,582.00,VWS V14.01,2013-01-09 19:52:00,
2013-01-09 11:58:00,70.3,31.8,30.07,South,180,4.0,6.0,24,0.00,,CLR,0.00,534.00,VWS V14.01,2013-01-09 19:58:00,
2013-01-09 12:03:00,70.8,30.1,30.07,South,180,0.0,6.0,22,0.00,,BKN250,0.00,582.00,VWS V14.01,2013-01-09 20:03:00,
2013-01-09 12:08:00,70.9,30.2,30.07,South,180,4.0,7.0,22,0.00,,BKN250,0.00,564.00,VWS V14.01,2013-01-09 20:08:00,
2013-01-09 12:13:00,70.9,31.3,30.07,South,180,0.0,6.0,23,0.00,,BKN250,0.00,606.00,VWS V14.01,2013-01-09 20:13:00,
2013-01-09 12:18:00,71.1,31.5,30.06,South,180,4.0,6.0,23,0.00,,BKN250,0.00,543.00,VWS V14.01,2013-01-09 20:18:00,
2013-01-09 12:23:00,71.5,32.8,30.06,South,180,1.0,6.0,24,0.00,,BKN250,0.00,580.00,VWS V14.01,2013-01-09 20:23:00,
2013-01-09 12:28:00,71.5,31.8,30.06,South,180,5.0,7.0,23,0.00,,BKN250,0.00,592.00,VWS V14.01,2013-01-09 20:28:00,
2013-01-09 12:33:00,71.3,31.6,30.05,South,180,4.0,6.0,23,0.00,,BKN250,0.00,483.00,VWS V14.01,2013-01-09 20:33:00,
2013-01-09 12:38:00,72.0,32.2,30.05,South,180,4.0,7.0,23,0.00,,BKN250,0.00,603.00,VWS V14.01,2013-01-09 20:38:00,
2013-01-09 12:43:00,71.6,31.9,30.05,South,178,5.0,8.0,23,0.00,,BKN250,0.00,596.00,VWS V14.01,2013-01-09 20:43:00,
2013-01-09 12:48:00,71.5,31.8,30.05,South,178,3.0,8.0,23,0.00,,BKN250,0.00,543.00,VWS V14.01,2013-01-09 20:48:00,
2013-01-09 12:53:00,72.3,32.5,30.05,South,178,5.0,7.0,23,0.00,,BKN250,0.00,557.00,VWS V14.01,2013-01-09 20:53:00,
2013-01-09 12:58:00,71.8,32.0,30.05,South,178,1.0,7.0,23,0.00,,BKN250,0.00,536.00,VWS V14.01,2013-01-09 20:58:00,
2013-01-09 13:03:00,71.3,32.7,30.04,South,178,1.0,6.0,24,0.00,,SCT250,0.00,596.00,VWS V14.01,2013-01-09 21:03:00,
2013-01-09 13:08:00,71.5,30.7,30.04,South,178,3.0,5.0,22,0.00,,SCT250,0.00,396.00,VWS V14.01,2013-01-09 21:08:00,
2013-01-09 13:13:00,71.6,31.9,30.04,South,178,2.0,5.0,23,0.00,,SCT250,0.00,496.00,VWS V14.01,2013-01-09 21:13:00,
2013-01-09 13:18:00,72.0,32.2,30.04,South,178,3.0,3.0,23,0.00,,SCT250,0.00,538.00,VWS V14.01,2013-01-09 21:18:00,
2013-01-09 13:23:00,72.5,32.6,30.04,South,178,6.0,6.0,23,0.00,,SCT250,0.00,555.00,VWS V14.01,2013-01-09 21:23:00,
2013-01-09 13:28:00,72.8,31.8,30.04,South,177,0.0,0.0,22,0.00,,SCT250,0.00,529.00,VWS V14.01,2013-01-09 21:28:00,
2013-01-09 13:33:00,73.0,32.0,30.03,South,177,3.0,6.0,22,0.00,,SCT250,0.00,466.00,VWS V14.01,2013-01-09 21:33:00,
2013-01-09 13:38:00,73.0,30.8,30.03,South,177,6.0,6.0,21,0.00,,SCT250,0.00,420.00,VWS V14.01,2013-01-09 21:38:00,
2013-01-09 13:43:00,72.8,31.8,30.03,South,175,4.0,6.0,22,0.00,,SCT250,0.00,406.00,VWS V14.01,2013-01-09 21:43:00,
2013-01-09 13:48:00,72.8,31.8,30.02,South,175,3.0,4.0,22,0.00,,SCT250,0.00,462.00,VWS V14.01,2013-01-09 21:48:00,
2013-01-09 13:53:00,72.8,31.8,30.02,South,175,4.0,5.0,22,0.00,,SCT250,0.00,431.00,VWS V14.01,2013-01-09 21:53:00,
2013-01-09 13:58:00,72.7,31.7,30.02,SSE,149,9.0,9.0,22,0.00,,SCT250,0.00,403.00,VWS V14.01,2013-01-09 21:58:00,
2013-01-09 14:03:00,72.7,32.8,30.02,SE,146,2.0,5.0,23,0.00,,SCT250,0.00,346.00,VWS V14.01,2013-01-09 22:03:00,
2013-01-09 14:08:00,73.0,32.0,30.02,SE,146,4.0,7.0,22,0.00,,SCT250,0.00,394.00,VWS V14.01,2013-01-09 22:08:00,
2013-01-09 14:13:00,73.0,32.0,30.02,SE,146,3.0,7.0,22,0.00,,SCT250,0.00,415.00,VWS V14.01,2013-01-09 22:13:00,
2013-01-09 14:18:00,72.8,31.8,30.02,SE,146,3.0,4.0,22,0.00,,SCT250,0.00,360.00,VWS V14.01,2013-01-09 22:18:00,
2013-01-09 14:23:00,72.5,32.6,30.02,SE,146,4.0,4.0,23,0.00,,SCT250,0.00,323.00,VWS V14.01,2013-01-09 22:23:00,
2013-01-09 14:28:00,72.5,32.6,30.02,SE,146,3.0,6.0,23,0.00,,SCT250,0.00,320.00,VWS V14.01,2013-01-09 22:28:00,
2013-01-09 14:33:00,72.3,32.5,30.02,SE,145,2.0,6.0,23,0.00,,SCT250,0.00,264.00,VWS V14.01,2013-01-09 22:33:00,
2013-01-09 14:38:00,72.5,32.6,30.02,SE,145,4.0,6.0,23,0.00,,SCT250,0.00,230.00,VWS V14.01,2013-01-09 22:38:00,
2013-01-09 14:43:00,72.1,32.3,30.02,SE,145,1.0,5.0,23,0.00,,SCT250,0.00,253.00,VWS V14.01,2013-01-09 22:43:00,
2013-01-09 14:48:00,72.3,33.5,30.01,SE,145,4.0,4.0,24,0.00,,SCT250,0.00,244.00,VWS V14.01,2013-01-09 22:48:00,
2013-01-09 14:53:00,72.1,33.3,30.01,SE,145,5.0,5.0,24,0.00,,SCT250,0.00,288.00,VWS V14.01,2013-01-09 22:53:00,
2013-01-09 14:58:00,72.1,33.3,30.01,SE,145,3.0,6.0,24,0.00,,SCT250,0.00,236.00,VWS V14.01,2013-01-09 22:58:00,
2013-01-09 15:03:00,72.0,34.3,30.01,SE,145,1.0,3.0,25,0.00,,BKN250,0.00,185.00,VWS V14.01,2013-01-09 23:03:00,
2013-01-09 15:08:00,72.0,34.3,30.01,SE,145,4.0,6.0,25,0.00,,BKN250,0.00,255.00,VWS V14.01,2013-01-09 23:08:00,
2013-01-09 15:13:00,72.0,34.3,30.01,SE,144,7.0,7.0,25,0.00,,BKN250,0.00,230.00,VWS V14.01,2013-01-09 23:13:00,
2013-01-09 15:18:00,72.0,34.3,30.01,SE,144,3.0,4.0,25,0.00,,BKN250,0.00,195.00,VWS V14.01,2013-01-09 23:18:00,
2013-01-09 15:23:00,71.8,33.1,30.01,SE,144,3.0,4.0,24,0.00,,BKN250,0.00,163.00,VWS V14.01,2013-01-09 23:23:00,
2013-01-09 15:29:00,71.8,33.1,30.01,SE,144,5.0,5.0,24,0.00,,BKN250,0.00,165.00,VWS V14.01,2013-01-09 23:29:00,
2013-01-09 15:34:00,71.6,32.9,30.00,SE,144,1.0,3.0,24,0.00,,BKN250,0.00,162.00,VWS V14.01,2013-01-09 23:34:00,
2013-01-09 15:39:00,71.6,34.0,30.00,SE,144,3.0,3.0,25,0.00,,BKN250,0.00,162.00,VWS V14.01,2013-01-09 23:39:00,
2013-01-09 15:44:00,71.5,33.9,30.00,SE,144,3.0,3.0,25,0.00,,BKN250,0.00,146.00,VWS V14.01,2013-01-09 23:44:00,
2013-01-09 15:49:00,71.3,33.7,29.99,SE,144,3.0,6.0,25,0.00,,BKN250,0.00,142.00,VWS V14.01,2013-01-09 23:49:00,
2013-01-09 15:54:00,71.3,33.7,29.99,SE,144,4.0,4.0,25,0.00,,BKN250,0.00,137.00,VWS V14.01,2013-01-09 23:54:00,
2013-01-09 15:59:00,71.1,33.5,29.99,SE,144,4.0,6.0,25,0.00,,BKN250,0.00,167.00,VWS V14.01,2013-01-09 23:59:00,
2013-01-09 16:04:00,71.3,32.7,29.99,SE,141,5.0,8.0,24,0.00,,CLR,0.00,149.00,VWS V14.01,2013-01-10 00:04:00,
2013-01-09 16:09:00,71.3,32.7,29.99,ESE,109,10.0,10.0,24,0.00,,CLR,0.00,127.00,VWS V14.01,2013-01-10 00:09:00,
2013-01-09 16:14:00,71.1,31.5,29.99,ESE,104,3.0,10.0,23,0.00,,CLR,0.00,88.00,VWS V14.01,2013-01-10 00:14:00,
2013-01-09 16:19:00,70.9,30.2,29.99,ESE,109,4.0,4.0,22,0.00,,CLR,0.00,86.00,VWS V14.01,2013-01-10 00:19:00,
2013-01-09 16:24:00,70.8,30.1,29.99,ESE,111,3.0,8.0,22,0.00,,CLR,0.00,72.00,VWS V14.01,2013-01-10 00:24:00,
2013-01-09 16:29:00,70.6,29.9,29.99,East,94,2.0,5.0,22,0.00,,CLR,0.00,51.00,VWS V14.01,2013-01-10 00:29:00,
2013-01-09 16:34:00,70.3,29.7,29.98,ESE,109,3.0,7.0,22,0.00,,CLR,0.00,37.00,VWS V14.01,2013-01-10 00:34:00,
2013-01-09 16:39:00,69.9,29.4,29.98,ESE,107,8.0,8.0,22,0.00,,CLR,0.00,30.00,VWS V14.01,2013-01-10 00:39:00,
2013-01-09 16:44:00,69.6,29.1,29.98,East,101,3.0,4.0,22,0.00,,CLR,0.00,25.00,VWS V14.01,2013-01-10 00:44:00,
2013-01-09 16:49:00,69.3,28.9,29.98,ESE,109,2.0,5.0,22,0.00,,CLR,0.00,19.00,VWS V14.01,2013-01-10 00:49:00,
2013-01-09 16:54:00,68.9,29.6,29.98,East,87,5.0,6.0,23,0.00,,CLR,0.00,11.00,VWS V14.01,2013-01-10 00:54:00,
2013-01-09 16:59:00,68.6,29.4,29.98,East,90,3.0,6.0,23,0.00,,CLR,0.00,0.00,VWS V14.01,2013-01-10 00:59:00,
2013-01-09 17:04:00,68.3,29.1,29.98,East,79,3.0,5.0,23,0.00,,CLR,0.00,0.00,VWS V14.01,2013-01-10 01:04:00,
2013-01-09 17:09:00,67.9,29.8,29.98,East,91,5.0,6.0,24,0.00,,CLR,0.00,0.00,VWS V14.01,2013-01-10 01:09:00,
2013-01-09 17:14:00,67.3,29.3,29.98,East,96,2.0,5.0,24,0.00,,CLR,0.00,0.00,VWS V14.01,2013-01-10 01:14:00,
2013-01-09 17:19:00,66.9,30.0,29.98,East,95,3.0,5.0,25,0.00,,CLR,0.00,0.00,VWS V14.01,2013-01-10 01:19:00,
2013-01-09 17:24:00,66.4,30.5,29.98,East,90,2.0,5.0,26,0.00,,CLR,0.00,0.00,VWS V14.01,2013-01-10 01:24:00,
2013-01-09 17:29:00,66.0,30.2,29.98,East,90,2.0,2.0,26,0.00,,CLR,0.00,0.00,VWS V14.01,2013-01-10 01:29:00,
2013-01-09 17:34:00,65.6,30.8,29.98,East,90,2.0,3.0,27,0.00,,CLR,0.00,0.00,VWS V14.01,2013-01-10 01:34:00,
2013-01-09 17:39:00,65.3,31.4,29.98,ENE,78,1.0,3.0,28,0.00,,CLR,0.00,0.00,VWS V14.01,2013-01-10 01:39:00,
2013-01-09 17:44:00,65.0,31.1,29.98,East,79,2.0,5.0,28,0.00,,CLR,0.00,0.00,VWS V14.01,2013-01-10 01:44:00,
2013-01-09 17:49:00,64.7,30.9,29.98,East,80,3.0,5.0,28,0.00,,CLR,0.00,0.00,VWS V14.01,2013-01-10 01:49:00,
2013-01-09 17:54:00,64.5,30.7,29.98,East,91,1.0,3.0,28,0.00,,CLR,0.00,0.00,VWS V14.01,2013-01-10 01:54:00,
2013-01-09 18:00:00,64.2,30.4,29.98,East,91,1.0,2.0,28,0.00,,CLR,0.00,0.00,VWS V14.01,2013-01-10 02:00:00,
2013-01-09 18:05:00,63.9,29.3,29.98,East,91,1.0,1.0,27,0.00,,CLR,0.00,0.00,VWS V14.01,2013-01-10 02:05:00,
2013-01-09 18:10:00,63.7,30.0,29.98,East,91,0.0,0.0,28,0.00,,CLR,0.00,0.00,VWS V14.01,2013-01-10 02:10:00,
2013-01-09 18:15:00,63.5,29.0,29.98,East,91,0.0,0.0,27,0.00,,CLR,0.00,0.00,VWS V14.01,2013-01-10 02:15:00,
2013-01-09 18:20:00,63.4,29.8,29.98,East,91,1.0,2.0,28,0.00,,CLR,0.00,0.00,VWS V14.01,2013-01-10 02:20:00,
2013-01-09 18:25:00,62.9,29.3,29.98,East,90,0.0,0.0,28,0.00,,CLR,0.00,0.00,VWS V14.01,2013-01-10 02:25:00,
2013-01-09 18:30:00,62.6,29.1,29.98,East,90,0.0,0.0,28,0.00,,CLR,0.00,0.00,VWS V14.01,2013-01-10 02:30:00,
2013-01-09 18:35:00,62.3,28.8,29.98,East,90,0.0,0.0,28,0.00,,CLR,0.00,0.00,VWS V14.01,2013-01-10 02:35:00,
2013-01-09 18:40:00,62.0,28.5,29.98,East,90,0.0,0.0,28,0.00,,CLR,0.00,0.00,VWS V14.01,2013-01-10 02:40:00,
2013-01-09 18:45:00,61.8,28.4,29.98,East,90,0.0,0.0,28,0.00,,CLR,0.00,0.00,VWS V14.01,2013-01-10 02:45:00,
2013-01-09 18:50:00,61.5,29.8,29.97,East,90,0.0,0.0,30,0.00,,CLR,0.00,0.00,VWS V14.01,2013-01-10 02:50:00,
2013-01-09 18:55:00,61.2,28.7,29.97,East,90,0.0,0.0,29,0.00,,CLR,0.00,0.00,VWS V14.01,2013-01-10 02:55:00,
2013-01-09 19:00:00,61.0,28.5,29.97,East,90,0.0,0.0,29,0.00,,CLR,0.00,0.00,VWS V14.01,2013-01-10 03:00:00,
2013-01-09 19:05:00,60.7,29.1,29.97,East,90,0.0,0.0,30,0.00,,CLR,0.00,0.00,VWS V14.01,2013-01-10 03:05:00,
2013-01-09 19:10:00,60.4,28.9,29.97,East,90,0.0,0.0,30,0.00,,CLR,0.00,0.00,VWS V14.01,2013-01-10 03:10:00,
2013-01-09 19:15:00,60.4,28.9,29.97,East,90,0.0,0.0,30,0.00,,CLR,0.00,0.00,VWS V14.01,2013-01-10 03:15:00,
2013-01-09 19:20:00,60.4,28.9,29.96,East,90,0.0,0.0,30,0.00,,CLR,0.00,0.00,VWS V14.01,2013-01-10 03:20:00,
2013-01-09 19:25:00,60.2,28.7,29.96,East,90,0.0,0.0,30,0.00,,CLR,0.00,0.00,VWS V14.01,2013-01-10 03:25:00,
2013-01-09 19:30:00,60.1,28.6,29.96,East,90,0.0,0.0,30,0.00,,CLR,0.00,0.00,VWS V14.01,2013-01-10 03:30:00,
2013-01-09 19:35:00,59.9,28.4,29.97,East,90,0.0,0.0,30,0.00,,CLR,0.00,0.00,VWS V14.01,2013-01-10 03:35:00,
2013-01-09 19:40:00,59.8,28.3,29.97,East,90,0.0,0.0,30,0.00,,CLR,0.00,0.00,VWS V14.01,2013-01-10 03:40:00,
2013-01-09 19:45:00,59.8,28.3,29.97,East,90,0.0,0.0,30,0.00,,CLR,0.00,0.00,VWS V14.01,2013-01-10 03:45:00,
2013-01-09 19:50:00,59.6,29.0,29.97,East,90,0.0,0.0,31,0.00,,CLR,0.00,0.00,VWS V14.01,2013-01-10 03:50:00,
2013-01-09 19:55:00,59.6,29.0,29.97,East,90,0.0,0.0,31,0.00,,CLR,0.00,0.00,VWS V14.01,2013-01-10 03:55:00,
2013-01-09 20:00:00,59.5,30.4,29.97,East,85,2.0,3.0,33,0.00,,CLR,0.00,0.00,VWS V14.01,2013-01-10 04:00:00,
2013-01-09 20:05:00,59.3,30.2,29.97,East,79,0.0,2.0,33,0.00,,CLR,0.00,0.00,VWS V14.01,2013-01-10 04:05:00,
2013-01-09 20:11:00,59.2,31.6,29.97,East,79,0.0,0.0,35,0.00,,CLR,0.00,0.00,VWS V14.01,2013-01-10 04:11:00,
2013-01-09 20:16:00,59.0,30.0,29.97,East,79,0.0,0.0,33,0.00,,CLR,0.00,0.00,VWS V14.01,2013-01-10 04:16:00,
2013-01-09 20:21:00,58.9,29.9,29.96,East,79,0.0,0.0,33,0.00,,CLR,0.00,0.00,VWS V14.01,2013-01-10 04:21:00,
2013-01-09 20:26:00,58.9,29.9,29.96,East,79,0.0,0.0,33,0.00,,CLR,0.00,0.00,VWS V14.01,2013-01-10 04:26:00,
2013-01-09 20:31:00,58.7,29.7,29.96,East,79,0.0,0.0,33,0.00,,CLR,0.00,0.00,VWS V14.01,2013-01-10 04:31:00,
2013-01-09 20:36:00,58.6,29.6,29.96,East,79,0.0,0.0,33,0.00,,CLR,0.00,0.00,VWS V14.01,2013-01-10 04:36:00,
2013-01-09 20:41:00,58.4,29.4,29.96,East,79,0.0,0.0,33,0.00,,CLR,0.00,0.00,VWS V14.01,2013-01-10 04:41:00,
2013-01-09 20:46:00,58.3,28.6,29.96,East,79,0.0,0.0,32,0.00,,CLR,0.00,0.00,VWS V14.01,2013-01-10 04:46:00,
2013-01-09 20:51:00,58.1,28.4,29.96,East,79,0.0,0.0,32,0.00,,CLR,0.00,0.00,VWS V14.01,2013-01-10 04:51:00,
2013-01-09 20:56:00,58.0,28.3,29.96,East,79,0.0,0.0,32,0.00,,CLR,0.00,0.00,VWS V14.01,2013-01-10 04:56:00,
2013-01-09 21:00:00,57.8,28.2,29.96,East,79,0.0,0.0,32,0.00,,CLR,0.00,0.00,VWS V14.01,2013-01-10 05:00:00,
2013-01-09 21:01:00,57.8,28.2,29.96,East,79,0.0,0.0,32,0.00,,CLR,0.00,0.00,VWS V14.01,2013-01-10 05:01:00,
2013-01-09 21:02:00,57.8,28.9,29.95,East,79,0.0,0.0,33,0.00,,CLR,0.00,0.00,VWS V14.01,2013-01-10 05:02:00,
2013-01-09 21:05:00,57.6,28.7,29.95,East,79,0.0,0.0,33,0.00,,CLR,0.00,0.00,VWS V14.01,2013-01-10 05:05:00,
2013-01-09 21:10:00,57.5,29.4,29.95,East,79,0.0,0.0,34,0.00,,CLR,0.00,0.00,VWS V14.01,2013-01-10 05:10:00,
2013-01-09 21:15:00,57.3,29.2,29.95,East,79,0.0,0.0,34,0.00,,CLR,0.00,0.00,VWS V14.01,2013-01-10 05:15:00,
2013-01-09 21:20:00,57.0,28.9,29.95,East,79,0.0,0.0,34,0.00,,CLR,0.00,0.00,VWS V14.01,2013-01-10 05:20:00,
2013-01-09 21:25:00,56.9,28.8,29.95,East,79,0.0,0.0,34,0.00,,CLR,0.00,0.00,VWS V14.01,2013-01-10 05:25:00,
2013-01-09 21:35:00,56.6,28.6,29.95,North,0,0.0,0.0,34,0.00,,,0.00,0.00,VWS V14.01,2013-01-10 05:35:00,
2013-01-09 21:48:00,56.5,28.5,29.95,North,0,0.0,0.0,34,0.00,,,0.00,0.00,VWS V14.01,2013-01-10 05:48:00,
2013-01-09 21:54:00,56.2,28.9,29.95,ENE,76,2.0,3.0,35,0.00,,,0.00,0.00,VWS V14.01,2013-01-10 05:54:00,
2013-01-09 21:59:00,56.2,28.9,29.95,ENE,76,0.0,2.0,35,0.00,,,0.00,0.00,VWS V14.01,2013-01-10 05:59:00,
2013-01-09 22:04:00,56.0,28.8,29.94,ENE,76,0.0,0.0,35,0.00,,CLR,0.00,0.00,VWS V14.01,2013-01-10 06:04:00,
2013-01-09 22:09:00,56.0,28.8,29.94,ENE,76,0.0,0.0,35,0.00,,,0.00,0.00,VWS V14.01,2013-01-10 06:09:00,
2013-01-09 22:14:00,56.0,29.4,29.94,ENE,76,0.0,2.0,36,0.00,,,0.00,0.00,VWS V14.01,2013-01-10 06:14:00,
2013-01-09 22:19:00,55.9,29.4,29.94,ENE,76,0.0,0.0,36,0.00,,,0.00,0.00,VWS V14.01,2013-01-10 06:19:00,
2013-01-09 22:24:00,55.9,30.0,29.94,ENE,76,0.0,0.0,37,0.00,,,0.00,0.00,VWS V14.01,2013-01-10 06:24:00,
2013-01-09 22:29:00,55.7,29.9,29.94,ENE,76,0.0,0.0,37,0.00,,,0.00,0.00,VWS V14.01,2013-01-10 06:29:00,
2013-01-09 22:34:00,55.7,30.5,29.94,ENE,76,0.0,0.0,38,0.00,,CLR,0.00,0.00,VWS V14.01,2013-01-10 06:34:00,
2013-01-09 22:39:00,55.6,29.8,29.94,ENE,74,1.0,2.0,37,0.00,,CLR,0.00,0.00,VWS V14.01,2013-01-10 06:39:00,
2013-01-09 22:44:00,55.6,30.4,29.94,ENE,72,0.0,2.0,38,0.00,,CLR,0.00,0.00,VWS V14.01,2013-01-10 06:44:00,
2013-01-09 22:49:00,55.6,30.4,29.94,ENE,72,0.0,0.0,38,0.00,,CLR,0.00,0.00,VWS V14.01,2013-01-10 06:49:00,
2013-01-09 22:55:00,55.4,30.2,29.94,ENE,72,0.0,0.0,38,0.00,,CLR,0.00,0.00,VWS V14.01,2013-01-10 06:55:00,
2013-01-09 23:00:00,55.4,30.2,29.93,ENE,72,0.0,0.0,38,0.00,,CLR,0.00,0.00,VWS V14.01,2013-01-10 07:00:00,
2013-01-09 23:05:00,55.4,30.2,29.93,ENE,72,0.0,0.0,38,0.00,,CLR,0.00,0.00,VWS V14.01,2013-01-10 07:05:00,
2013-01-09 23:10:00,55.4,30.2,29.93,ENE,72,0.0,0.0,38,0.00,,CLR,0.00,0.00,VWS V14.01,2013-01-10 07:10:00,
2013-01-09 23:15:00,55.3,30.1,29.93,ENE,72,0.0,0.0,38,0.00,,CLR,0.00,0.00,VWS V14.01,2013-01-10 07:15:00,
2013-01-09 23:20:00,55.3,30.8,29.93,ENE,72,0.0,0.0,39,0.00,,CLR,0.00,0.00,VWS V14.01,2013-01-10 07:20:00,
2013-01-09 23:25:00,55.3,32.0,29.93,ENE,72,0.0,0.0,41,0.00,,CLR,0.00,0.00,VWS V14.01,2013-01-10 07:25:00,
2013-01-09 23:30:00,55.1,31.8,29.92,ENE,72,0.0,0.0,41,0.00,,CLR,0.00,0.00,VWS V14.01,2013-01-10 07:30:00,
2013-01-09 23:35:00,55.0,32.3,29.92,ENE,72,0.0,0.0,42,0.00,,CLR,0.00,0.00,VWS V14.01,2013-01-10 07:35:00,
2013-01-09 23:40:00,54.7,32.1,29.92,ENE,71,0.0,0.0,42,0.00,,CLR,0.00,0.00,VWS V14.01,2013-01-10 07:40:00,
2013-01-09 23:45:00,54.7,31.5,29.91,ENE,71,0.0,0.0,41,0.00,,CLR,0.00,0.00,VWS V14.01,2013-01-10 07:45:00,
2013-01-09 23:50:00,54.5,31.3,29.91,ENE,71,0.0,0.0,41,0.00,,CLR,0.00,0.00,VWS V14.01,2013-01-10 07:50:00,
2013-01-09 23:55:00,54.4,31.2,29.91,ENE,70,1.0,2.0,41,0.00,,CLR,0.00,0.00,VWS V14.01,2013-01-10 07:55:00,